createdAt,value
2022-11-06T00:01:12.990Z,444.40
2022-11-06T00:03:40.149Z,432.98
2022-11-06T00:06:43.685Z,442.05
2022-11-06T00:09:12.970Z,429.42
2022-11-06T00:11:40.891Z,441.83
2022-11-06T00:14:07.779Z,441.38
2022-11-06T00:16:34.647Z,437.00
2022-11-06T00:19:02.434Z,445.63
2022-11-06T00:21:30.691Z,445.83
2022-11-06T00:24:00.107Z,446.95
2022-11-06T00:26:28.516Z,444.70
2022-11-06T00:28:56.257Z,449.63
2022-11-06T00:31:37.085Z,439.83
2022-11-06T00:34:07.405Z,454.08
2022-11-06T00:36:34.559Z,435.40
2022-11-06T00:39:01.321Z,430.00
2022-11-06T00:41:28.220Z,447.95
2022-11-06T00:44:02.552Z,445.35
2022-11-06T00:46:29.586Z,445.10
2022-11-06T00:48:56.640Z,432.37
2022-11-06T00:51:28.079Z,423.10
2022-11-06T00:53:56.963Z,433.83
2022-11-06T00:56:23.854Z,434.63
2022-11-06T00:58:50.701Z,450.20
2022-11-06T01:01:24.565Z,428.77
2022-11-06T01:03:59.723Z,436.45
2022-11-06T01:06:30.255Z,432.48
2022-11-06T01:08:57.606Z,443.23
2022-11-06T01:11:28.499Z,432.00
2022-11-06T01:13:59.435Z,443.52
2022-11-06T01:16:26.947Z,433.08
2022-11-06T01:18:55.247Z,437.88
2022-11-06T01:21:23.424Z,437.70
2022-11-06T01:23:55.204Z,440.15
2022-11-06T01:26:37.273Z,440.80
2022-11-06T01:29:06.423Z,437.65
2022-11-06T01:31:34.149Z,439.52
2022-11-06T01:34:02.032Z,432.23
2022-11-06T01:36:29.694Z,441.10
2022-11-06T01:38:59.546Z,428.30
2022-11-06T01:41:43.436Z,428.58
2022-11-06T01:44:40.715Z,434.40
2022-11-06T01:47:24.172Z,435.10
2022-11-06T01:49:56.974Z,433.10
2022-11-06T01:52:25.342Z,429.50
2022-11-06T01:54:57.373Z,420.83
2022-11-06T01:57:24.687Z,420.77
2022-11-06T01:59:52.657Z,418.65
2022-11-06T02:02:19.886Z,411.90
2022-11-06T02:04:48.477Z,426.80
2022-11-06T02:07:16.759Z,424.63
2022-11-06T02:09:43.864Z,429.25
2022-11-06T02:12:32.350Z,425.08
2022-11-06T02:15:26.076Z,426.45
2022-11-06T02:18:32.800Z,432.48
2022-11-06T02:21:17.500Z,429.05
2022-11-06T02:24:05.525Z,422.85
2022-11-06T02:26:44.116Z,422.00
2022-11-06T02:29:19.849Z,418.48
2022-11-06T02:31:49.186Z,419.65
2022-11-06T02:34:19.233Z,416.88
2022-11-06T02:36:53.965Z,415.60
2022-11-06T02:39:24.470Z,416.02
2022-11-06T02:41:54.258Z,419.52
2022-11-06T02:44:25.863Z,421.73
2022-11-06T02:47:03.925Z,414.60
2022-11-06T02:49:52.972Z,410.40
2022-11-06T02:52:29.251Z,415.02
2022-11-06T02:55:03.995Z,414.10
2022-11-06T02:57:36.253Z,419.55
2022-11-06T03:00:09.351Z,425.45
2022-11-06T03:03:00.503Z,435.67
2022-11-06T03:05:33.184Z,418.50
2022-11-06T03:08:12.126Z,417.67
2022-11-06T03:10:59.572Z,417.63
2022-11-06T03:13:44.056Z,415.67
2022-11-06T03:16:42.683Z,412.48
2022-11-06T03:19:21.371Z,415.73
2022-11-06T03:22:12.164Z,416.95
2022-11-06T03:24:55.466Z,418.08
2022-11-06T03:27:40.140Z,418.08
2022-11-06T03:30:15.258Z,408.45
2022-11-06T03:32:50.940Z,416.55
2022-11-06T03:35:33.524Z,414.98
2022-11-06T03:38:19.649Z,417.17
2022-11-06T03:40:52.966Z,420.85
2022-11-06T03:43:24.768Z,428.23
2022-11-06T03:45:53.499Z,423.25
2022-11-06T03:48:30.485Z,419.30
2022-11-06T03:51:04.879Z,425.25
2022-11-06T03:53:53.649Z,421.20
2022-11-06T03:56:34.591Z,425.25
2022-11-06T03:59:03.622Z,426.65
2022-11-06T04:01:36.150Z,430.40
2022-11-06T04:04:07.164Z,432.63
2022-11-06T04:06:41.362Z,430.73
2022-11-06T04:09:29.752Z,432.58
2022-11-06T04:12:18.623Z,430.07
2022-11-06T04:14:48.913Z,430.60
2022-11-06T04:17:17.549Z,434.70
2022-11-06T04:19:50.990Z,431.33
2022-11-06T04:22:36.323Z,434.15
2022-11-06T04:25:30.680Z,430.65
2022-11-06T04:28:17.648Z,428.58
2022-11-06T04:31:07.549Z,427.93
2022-11-06T04:33:58.912Z,424.42
2022-11-06T04:36:39.979Z,426.13
2022-11-06T04:39:11.901Z,437.93
2022-11-06T04:42:02.228Z,419.80
2022-11-06T04:44:37.216Z,423.05
2022-11-06T04:47:07.656Z,426.48
2022-11-06T04:49:37.027Z,427.27
2022-11-06T04:52:07.802Z,412.67
2022-11-06T04:54:35.480Z,413.05
2022-11-06T04:57:02.987Z,420.30
2022-11-06T04:59:33.325Z,411.05
2022-11-06T05:01:59.909Z,414.38
2022-11-06T05:04:26.566Z,416.70
2022-11-06T05:06:53.218Z,424.13
2022-11-06T05:09:19.779Z,429.95
2022-11-06T05:11:46.317Z,433.10
2022-11-06T05:14:12.939Z,431.33
2022-11-06T05:16:39.580Z,448.90
2022-11-06T05:19:06.250Z,450.92
2022-11-06T05:21:51.281Z,431.97
2022-11-06T05:24:17.922Z,435.25
2022-11-06T05:26:44.647Z,421.10
2022-11-06T05:29:12.285Z,425.23
2022-11-06T05:31:38.894Z,424.92
2022-11-06T05:34:06.093Z,426.52
2022-11-06T05:36:33.029Z,420.47
2022-11-06T05:38:59.599Z,419.05
2022-11-06T05:41:26.444Z,431.87
2022-11-06T05:43:53.186Z,425.50
2022-11-06T05:46:42.701Z,441.30
2022-11-06T05:49:06.625Z,419.98
2022-11-06T05:51:33.147Z,413.48
2022-11-06T05:53:59.781Z,414.25
2022-11-06T05:56:26.363Z,428.13
2022-11-06T05:58:53.014Z,425.27
2022-11-06T06:01:19.681Z,418.50
2022-11-06T06:03:46.373Z,417.77
2022-11-06T06:06:12.887Z,423.30
2022-11-06T06:08:39.456Z,414.43
2022-11-06T06:11:09.835Z,402.17
2022-11-06T06:13:39.693Z,410.08
2022-11-06T06:16:07.051Z,405.60
2022-11-06T06:18:33.699Z,404.08
2022-11-06T06:21:00.298Z,399.20
2022-11-06T06:23:27.102Z,397.13
2022-11-06T06:25:53.677Z,395.85
2022-11-06T06:28:20.206Z,408.87
2022-11-06T06:30:46.765Z,410.38
2022-11-06T06:33:13.341Z,403.27
2022-11-06T06:35:39.860Z,419.75
2022-11-06T06:38:06.474Z,399.23
2022-11-06T06:40:33.251Z,426.50
2022-11-06T06:42:59.795Z,414.05
2022-11-06T06:45:26.516Z,413.90
2022-11-06T06:47:53.265Z,411.48
2022-11-06T06:50:19.937Z,416.50
2022-11-06T06:52:47.328Z,415.95
2022-11-06T06:55:14.195Z,411.73
2022-11-06T06:57:40.787Z,408.13
2022-11-06T07:00:08.237Z,410.20
2022-11-06T07:02:34.925Z,433.45
2022-11-06T07:05:01.544Z,445.42
2022-11-06T07:07:28.141Z,420.38
2022-11-06T07:09:54.671Z,399.50
2022-11-06T07:12:21.402Z,419.73
2022-11-06T07:14:47.984Z,413.27
2022-11-06T07:17:14.574Z,404.85
2022-11-06T07:19:41.118Z,424.80
2022-11-06T07:22:07.782Z,425.30
2022-11-06T07:24:34.310Z,424.90
2022-11-06T07:27:00.847Z,416.83
2022-11-06T07:29:27.511Z,426.20
2022-11-06T07:31:54.101Z,405.15
2022-11-06T07:34:20.659Z,405.23
2022-11-06T07:36:47.364Z,414.70
2022-11-06T07:39:13.985Z,408.00
2022-11-06T07:41:40.621Z,423.25
2022-11-06T07:44:07.175Z,407.47
2022-11-06T07:46:33.710Z,429.40
2022-11-06T07:49:00.314Z,441.30
2022-11-06T07:51:26.860Z,484.23
2022-11-06T07:53:53.557Z,492.02
2022-11-06T07:56:20.086Z,479.60
2022-11-06T07:58:46.652Z,495.42
2022-11-06T08:01:18.904Z,486.88
2022-11-06T08:03:45.987Z,466.27
2022-11-06T08:06:12.544Z,483.60
2022-11-06T08:08:39.421Z,489.23
2022-11-06T08:11:08.302Z,446.23
2022-11-06T08:13:35.407Z,458.75
2022-11-06T08:16:13.640Z,472.93
2022-11-06T08:18:41.224Z,453.77
2022-11-06T08:21:08.246Z,443.00
2022-11-06T08:23:36.019Z,454.25
2022-11-06T08:26:05.916Z,466.35
2022-11-06T08:28:32.621Z,456.98
2022-11-06T08:31:04.193Z,443.63
2022-11-06T08:33:30.738Z,411.03
2022-11-06T08:36:00.562Z,447.67
2022-11-06T08:38:27.231Z,444.02
2022-11-06T08:40:54.101Z,455.80
2022-11-06T08:43:24.100Z,438.02
2022-11-06T08:45:50.691Z,441.23
2022-11-06T08:48:17.253Z,429.45
2022-11-06T08:50:43.852Z,434.48
2022-11-06T08:53:10.834Z,465.40
2022-11-06T08:55:38.978Z,449.63
2022-11-06T08:58:07.291Z,434.65
2022-11-06T09:00:34.249Z,454.77
2022-11-06T09:03:13.471Z,483.00
2022-11-06T09:05:44.141Z,452.92
2022-11-06T09:08:11.745Z,462.25
2022-11-06T09:10:39.730Z,457.97
2022-11-06T09:13:06.893Z,463.90
2022-11-06T09:15:33.859Z,467.02
2022-11-06T09:18:00.687Z,439.23
2022-11-06T09:20:27.787Z,443.67
2022-11-06T09:22:55.067Z,444.20
2022-11-06T09:25:21.927Z,439.83
2022-11-06T09:27:58.742Z,440.30
2022-11-06T09:30:28.267Z,441.42
2022-11-06T09:32:57.532Z,444.70
2022-11-06T09:35:25.846Z,447.15
2022-11-06T09:37:52.723Z,441.00
2022-11-06T09:40:29.832Z,418.98
2022-11-06T09:43:50.320Z,424.27
2022-11-06T09:46:22.897Z,437.20
2022-11-06T09:49:12.617Z,444.85
2022-11-06T09:51:47.436Z,424.65
2022-11-06T09:54:26.021Z,433.48
2022-11-06T09:56:57.886Z,430.33
2022-11-06T09:59:25.627Z,425.42
2022-11-06T10:01:55.962Z,417.50
2022-11-06T10:04:34.790Z,429.00
2022-11-06T10:07:01.588Z,419.77
2022-11-06T10:09:29.171Z,459.50
2022-11-06T10:12:16.994Z,428.42
2022-11-06T10:14:59.642Z,453.08
2022-11-06T10:17:48.229Z,432.98
2022-11-06T10:20:26.760Z,439.03
2022-11-06T10:23:11.043Z,439.95
2022-11-06T10:25:44.825Z,445.60
2022-11-06T10:28:17.422Z,456.05
2022-11-06T10:30:53.788Z,463.45
2022-11-06T10:33:26.269Z,449.10
2022-11-06T10:36:06.212Z,453.10
2022-11-06T10:38:39.144Z,457.52
2022-11-06T10:41:14.491Z,459.10
2022-11-06T10:43:58.822Z,443.80
2022-11-06T10:46:33.999Z,451.52
2022-11-06T10:49:03.991Z,444.27
2022-11-06T10:51:57.585Z,437.45
2022-11-06T10:54:32.604Z,439.15
2022-11-06T10:57:32.735Z,426.70
2022-11-06T10:59:59.409Z,432.43
2022-11-06T11:02:35.792Z,429.35
2022-11-06T11:05:02.799Z,432.27
2022-11-06T11:07:32.449Z,445.70
2022-11-06T11:09:59.101Z,422.90
2022-11-06T11:12:31.214Z,420.75
2022-11-06T11:15:05.273Z,420.92
2022-11-06T11:17:31.977Z,409.35
2022-11-06T11:19:59.506Z,449.60
2022-11-06T11:22:31.913Z,433.60
2022-11-06T11:25:04.827Z,424.80
2022-11-06T11:27:44.484Z,437.90
2022-11-06T11:30:23.605Z,428.42
2022-11-06T11:32:52.558Z,421.05
2022-11-06T11:35:28.378Z,418.95
2022-11-06T11:38:13.584Z,426.45
2022-11-06T11:40:41.563Z,412.83
2022-11-06T11:43:30.439Z,407.63
2022-11-06T11:46:09.263Z,424.42
2022-11-06T11:48:58.307Z,410.98
2022-11-06T11:51:35.781Z,403.42
2022-11-06T11:54:25.668Z,412.48
2022-11-06T11:57:05.158Z,409.60
2022-11-06T11:59:44.853Z,404.52
2022-11-06T12:02:36.752Z,410.70
2022-11-06T12:05:10.804Z,410.95
2022-11-06T12:07:45.964Z,417.50
2022-11-06T12:10:36.717Z,414.15
2022-11-06T12:13:07.256Z,453.95
2022-11-06T12:15:54.354Z,471.13
2022-11-06T12:18:27.160Z,431.33
2022-11-06T12:21:03.424Z,420.50
2022-11-06T12:23:32.955Z,420.92
2022-11-06T12:26:07.781Z,418.50
2022-11-06T12:28:37.950Z,432.58
2022-11-06T12:31:14.701Z,441.63
2022-11-06T12:34:05.634Z,445.07
2022-11-06T12:36:37.007Z,433.63
2022-11-06T12:39:11.965Z,445.77
2022-11-06T12:41:44.487Z,425.17
2022-11-06T12:44:14.849Z,432.35
2022-11-06T12:47:04.978Z,438.10
2022-11-06T12:50:08.166Z,411.95
2022-11-06T12:52:55.967Z,407.88
2022-11-06T12:55:36.878Z,432.60
2022-11-06T12:58:36.318Z,424.70
2022-11-06T13:01:18.139Z,412.98
2022-11-06T13:04:17.951Z,409.33
2022-11-06T13:07:10.467Z,404.55
2022-11-06T13:09:54.420Z,406.50
2022-11-06T13:12:27.553Z,421.75
2022-11-06T13:15:24.479Z,423.95
2022-11-06T13:17:59.752Z,406.15
2022-11-06T13:20:49.389Z,407.45
2022-11-06T13:23:39.477Z,421.63
2022-11-06T13:26:12.150Z,432.08
2022-11-06T13:28:44.959Z,424.50
2022-11-06T13:31:14.811Z,430.00
2022-11-06T13:33:49.974Z,422.38
2022-11-06T13:36:18.506Z,413.13
2022-11-06T13:38:49.753Z,401.55
2022-11-06T13:41:32.351Z,431.58
2022-11-06T13:44:02.471Z,429.35
2022-11-06T13:46:34.783Z,442.67
2022-11-06T13:49:29.344Z,463.77
2022-11-06T13:52:18.362Z,445.23
2022-11-06T13:55:04.744Z,433.63
2022-11-06T13:57:43.674Z,452.08
2022-11-06T14:00:23.348Z,439.80
2022-11-06T14:02:56.583Z,447.75
2022-11-06T14:05:59.661Z,436.05
2022-11-06T14:08:32.090Z,434.30
2022-11-06T14:11:03.997Z,439.60
2022-11-06T14:13:35.838Z,440.85
2022-11-06T14:16:27.134Z,451.38
2022-11-06T14:18:57.054Z,435.10
2022-11-06T14:21:28.656Z,434.00
2022-11-06T14:24:05.780Z,434.70
2022-11-06T14:26:51.487Z,443.27
2022-11-06T14:29:27.469Z,445.25
2022-11-06T14:32:18.477Z,427.48
2022-11-06T14:34:45.520Z,442.88
2022-11-06T14:37:21.012Z,440.77
2022-11-06T14:39:56.483Z,430.98
2022-11-06T14:42:26.871Z,424.48
2022-11-06T14:44:57.228Z,421.40
2022-11-06T14:47:34.705Z,430.00
2022-11-06T14:50:19.147Z,437.33
2022-11-06T14:52:56.991Z,440.77
2022-11-06T14:55:31.290Z,435.63
2022-11-06T14:58:23.140Z,432.27
2022-11-06T15:01:05.222Z,444.83
2022-11-06T15:03:36.013Z,447.75
2022-11-06T15:06:21.810Z,427.80
2022-11-06T15:08:48.456Z,432.55
2022-11-06T15:11:30.676Z,441.37
2022-11-06T15:14:03.409Z,437.27
2022-11-06T15:16:40.469Z,426.27
2022-11-06T15:19:14.257Z,429.05
2022-11-06T15:22:06.854Z,441.67
2022-11-06T15:24:40.173Z,420.13
2022-11-06T15:27:18.064Z,427.85
2022-11-06T15:29:48.043Z,440.77
2022-11-06T15:32:29.176Z,464.73
2022-11-06T15:35:02.359Z,429.63
2022-11-06T15:37:55.775Z,433.30
2022-11-06T15:40:38.163Z,435.70
2022-11-06T15:43:26.314Z,425.60
2022-11-06T15:46:06.795Z,436.73
2022-11-06T15:48:34.208Z,443.20
2022-11-06T15:51:00.931Z,439.13
2022-11-06T15:53:28.961Z,434.20
2022-11-06T15:56:03.207Z,424.50
2022-11-06T15:58:35.939Z,437.55
2022-11-06T16:01:05.283Z,435.00
2022-11-06T16:03:44.734Z,438.67
2022-11-06T16:06:11.631Z,437.20
2022-11-06T16:08:39.033Z,449.80
2022-11-06T16:11:13.334Z,445.40
2022-11-06T16:13:41.383Z,443.27
2022-11-06T16:16:38.481Z,445.75
2022-11-06T16:19:16.829Z,447.13
2022-11-06T16:21:52.832Z,464.13
2022-11-06T16:24:19.490Z,448.27
2022-11-06T16:26:52.492Z,452.95
2022-11-06T16:29:30.604Z,450.20
2022-11-06T16:32:02.477Z,445.58
2022-11-06T16:34:32.031Z,459.13
2022-11-06T16:37:03.571Z,451.02
2022-11-06T16:39:47.851Z,433.77
2022-11-06T16:52:53.292Z,442.65
2022-11-06T16:55:28.246Z,423.27
2022-11-06T16:58:00.766Z,403.95
2022-11-06T17:00:31.187Z,387.25
2022-11-06T17:03:18.225Z,379.42
2022-11-06T17:05:53.344Z,400.73
2022-11-06T17:08:26.593Z,398.50
2022-11-06T17:10:58.161Z,390.50
2022-11-06T17:13:49.627Z,383.67
2022-11-06T17:16:22.681Z,381.80
2022-11-06T17:18:49.811Z,377.23
2022-11-06T17:21:27.488Z,378.88
2022-11-06T17:24:00.240Z,364.70
2022-11-06T17:26:32.705Z,379.10
2022-11-06T17:29:00.314Z,370.60
2022-11-06T17:31:27.338Z,369.08
2022-11-06T17:33:54.322Z,371.40
2022-11-06T17:36:26.905Z,381.63
2022-11-06T17:38:55.136Z,377.27
2022-11-06T17:41:31.145Z,383.42
2022-11-06T17:43:57.920Z,380.08
2022-11-06T17:46:33.591Z,394.90
2022-11-06T17:49:00.770Z,393.65
2022-11-06T17:51:46.034Z,383.40
2022-11-06T17:54:13.468Z,381.52
2022-11-06T17:56:40.407Z,374.10
2022-11-06T17:59:09.007Z,390.08
2022-11-06T18:01:35.884Z,394.45
2022-11-06T18:04:02.818Z,396.33
2022-11-06T18:06:29.554Z,384.13
2022-11-06T18:09:01.775Z,395.65
2022-11-06T18:11:29.083Z,393.50
2022-11-06T18:13:56.272Z,384.55
2022-11-06T18:16:29.226Z,388.13
2022-11-06T18:18:57.412Z,386.00
2022-11-06T18:21:25.117Z,391.63
2022-11-06T18:23:52.062Z,393.70
2022-11-06T18:26:23.047Z,389.47
2022-11-06T18:28:50.642Z,383.08
2022-11-06T18:31:18.251Z,371.55
2022-11-06T18:33:47.538Z,376.38
2022-11-06T18:36:15.973Z,388.88
2022-11-06T18:38:44.338Z,378.23
2022-11-06T18:41:14.076Z,390.80
2022-11-06T18:43:41.168Z,378.80
2022-11-06T18:46:13.292Z,392.17
2022-11-06T18:48:44.449Z,395.08
2022-11-06T18:51:32.362Z,391.77
2022-11-06T18:54:01.893Z,399.77
2022-11-06T18:56:28.610Z,392.00
2022-11-06T18:58:55.408Z,398.38
2022-11-06T19:01:26.039Z,391.50
2022-11-06T19:03:53.165Z,388.48
2022-11-06T19:06:21.063Z,392.17
2022-11-06T19:08:50.009Z,388.35
2022-11-06T19:11:18.579Z,393.25
2022-11-06T19:13:48.325Z,391.40
2022-11-06T19:16:21.019Z,382.75
2022-11-06T19:21:32.286Z,385.23
2022-11-06T19:24:05.166Z,394.92
2022-11-06T19:26:34.776Z,380.92
2022-11-06T19:29:01.451Z,374.83
2022-11-06T19:31:29.804Z,374.08
2022-11-06T19:33:58.736Z,364.35
2022-11-06T19:36:25.570Z,368.08
2022-11-06T19:38:52.522Z,371.17
2022-11-06T19:41:19.624Z,372.30
2022-11-06T19:43:46.202Z,365.48
2022-11-06T19:46:12.788Z,359.80
2022-11-06T19:48:39.537Z,370.83
2022-11-06T19:51:10.519Z,368.88
2022-11-06T19:53:37.395Z,377.75
2022-11-06T19:56:05.581Z,374.92
2022-11-06T19:58:32.634Z,376.00
2022-11-06T20:00:59.411Z,365.77
2022-11-06T20:03:26.324Z,374.42
2022-11-06T20:05:54.103Z,385.98
2022-11-06T20:08:20.749Z,396.77
2022-11-06T20:10:47.304Z,386.88
2022-11-06T20:13:14.266Z,382.90
2022-11-06T20:15:41.028Z,384.55
2022-11-06T20:18:09.919Z,375.13
2022-11-06T20:20:37.091Z,371.02
2022-11-06T20:23:06.875Z,372.87
2022-11-06T20:25:33.597Z,361.42
2022-11-06T20:28:00.168Z,363.05
2022-11-06T20:30:30.608Z,372.92
2022-11-06T20:32:57.251Z,368.70
2022-11-06T20:35:23.853Z,382.38
2022-11-06T20:37:50.516Z,386.17
2022-11-06T20:40:17.184Z,380.08
2022-11-06T20:42:43.832Z,382.63
2022-11-06T20:45:10.444Z,383.37
2022-11-06T20:47:37.103Z,390.95
2022-11-06T20:50:03.922Z,388.40
2022-11-06T20:52:30.660Z,382.55
2022-11-06T20:54:57.438Z,381.50
2022-11-06T20:57:24.045Z,380.17
2022-11-06T20:59:50.543Z,373.73
2022-11-06T21:02:17.328Z,372.10
2022-11-06T21:04:44.149Z,377.45
2022-11-06T21:07:10.695Z,387.15
2022-11-06T21:09:37.391Z,387.23
2022-11-06T21:12:04.205Z,370.90
2022-11-06T21:14:30.865Z,395.00
2022-11-06T21:16:57.458Z,392.33
2022-11-06T21:19:24.314Z,395.58
2022-11-06T21:21:51.231Z,390.50
2022-11-06T21:24:17.971Z,398.90
2022-11-06T21:26:44.681Z,392.27
2022-11-06T21:29:11.817Z,391.45
2022-11-06T21:31:45.651Z,395.50
2022-11-06T21:34:15.338Z,388.23
2022-11-06T21:36:42.206Z,394.90
2022-11-06T21:39:12.706Z,388.25
2022-11-06T21:41:39.766Z,391.40
2022-11-06T21:44:07.631Z,399.23
2022-11-06T21:46:34.573Z,402.70
2022-11-06T21:49:01.143Z,401.17
2022-11-06T21:51:30.266Z,395.20
2022-11-06T21:54:15.519Z,398.50
2022-11-06T21:56:42.828Z,403.42
2022-11-06T21:59:12.575Z,396.77
2022-11-06T22:01:40.072Z,389.63
2022-11-06T22:04:07.354Z,401.00
2022-11-06T22:06:34.296Z,406.05
2022-11-06T22:09:02.751Z,402.45
2022-11-06T22:11:32.373Z,396.83
2022-11-06T22:14:02.626Z,396.63
2022-11-06T22:16:32.532Z,389.20
2022-11-06T22:18:59.682Z,405.77
2022-11-06T22:21:28.245Z,407.25
2022-11-06T22:23:55.526Z,412.70
2022-11-06T22:26:24.143Z,409.67
2022-11-06T22:29:02.201Z,401.80
2022-11-06T22:31:29.540Z,410.30
2022-11-06T22:33:57.036Z,405.53
2022-11-06T22:36:24.584Z,410.23
2022-11-06T22:38:51.933Z,406.63
2022-11-06T22:41:21.211Z,402.90
2022-11-06T22:43:47.951Z,399.30
2022-11-06T22:46:18.195Z,407.13
2022-11-06T22:48:45.360Z,408.00
2022-11-06T22:51:33.516Z,404.63
2022-11-06T22:54:01.076Z,403.15
2022-11-06T22:56:29.271Z,408.40
2022-11-06T22:58:58.086Z,402.77
2022-11-06T23:01:27.036Z,416.13
2022-11-06T23:03:57.765Z,410.75
2022-11-06T23:06:26.024Z,404.53
2022-11-06T23:08:53.155Z,396.90
2022-11-06T23:11:21.067Z,402.40
2022-11-06T23:13:47.708Z,393.70
2022-11-06T23:16:17.884Z,393.77
2022-11-06T23:18:45.038Z,396.23
2022-11-06T23:21:12.512Z,398.45
2022-11-06T23:23:39.201Z,395.58
2022-11-06T23:26:17.341Z,394.88
2022-11-06T23:28:45.301Z,399.27
2022-11-06T23:31:13.933Z,400.35
2022-11-06T23:33:41.041Z,398.40
2022-11-06T23:36:09.549Z,396.35
2022-11-06T23:38:36.752Z,403.25
2022-11-06T23:41:29.187Z,401.83
2022-11-06T23:43:56.933Z,406.23
2022-11-06T23:46:26.442Z,398.02
2022-11-06T23:48:53.223Z,399.08
2022-11-06T23:51:20.091Z,397.50
2022-11-06T23:53:46.643Z,402.15
2022-11-06T23:56:13.873Z,405.80
2022-11-06T23:58:41.131Z,405.17
